sensor_id;sensor_type;location;lat;lon;timestamp;P1;durP1;ratioP1;P2;durP2;ratioP2
55312;SDS011;46892;45.668;11.756;2024-01-30T00:01:50;75.93;;;45.50;;
55312;SDS011;46892;45.668;11.756;2024-01-30T00:04:16;80.77;;;46.37;;
55312;SDS011;46892;45.668;11.756;2024-01-30T00:06:42;83.80;;;48.23;;
55312;SDS011;46892;45.668;11.756;2024-01-30T00:09:11;81.77;;;48.03;;
55312;SDS011;46892;45.668;11.756;2024-01-30T00:11:37;84.80;;;48.63;;
55312;SDS011;46892;45.668;11.756;2024-01-30T00:14:03;86.93;;;48.63;;
55312;SDS011;46892;45.668;11.756;2024-01-30T00:16:29;100.20;;;55.67;;
55312;SDS011;46892;45.668;11.756;2024-01-30T00:18:55;98.70;;;55.03;;
55312;SDS011;46892;45.668;11.756;2024-01-30T00:21:21;101.43;;;55.60;;
55312;SDS011;46892;45.668;11.756;2024-01-30T00:23:47;89.67;;;50.10;;
55312;SDS011;46892;45.668;11.756;2024-01-30T00:26:13;94.80;;;52.57;;
55312;SDS011;46892;45.668;11.756;2024-01-30T00:28:42;98.03;;;55.43;;
55312;SDS011;46892;45.668;11.756;2024-01-30T00:31:08;94.93;;;53.47;;
55312;SDS011;46892;45.668;11.756;2024-01-30T00:33:37;101.33;;;55.03;;
55312;SDS011;46892;45.668;11.756;2024-01-30T00:36:07;102.60;;;54.63;;
55312;SDS011;46892;45.668;11.756;2024-01-30T00:38:33;93.90;;;53.13;;
55312;SDS011;46892;45.668;11.756;2024-01-30T00:40:59;100.93;;;55.07;;
55312;SDS011;46892;45.668;11.756;2024-01-30T00:43:26;100.43;;;55.40;;
55312;SDS011;46892;45.668;11.756;2024-01-30T00:45:53;94.80;;;52.03;;
55312;SDS011;46892;45.668;11.756;2024-01-30T00:48:19;107.27;;;54.27;;
55312;SDS011;46892;45.668;11.756;2024-01-30T00:50:46;102.10;;;55.23;;
55312;SDS011;46892;45.668;11.756;2024-01-30T00:53:12;101.40;;;57.77;;
55312;SDS011;46892;45.668;11.756;2024-01-30T00:55:38;95.97;;;54.83;;
55312;SDS011;46892;45.668;11.756;2024-01-30T00:58:04;102.37;;;57.13;;
55312;SDS011;46892;45.668;11.756;2024-01-30T01:00:30;102.63;;;57.77;;
55312;SDS011;46892;45.668;11.756;2024-01-30T01:02:57;109.60;;;59.73;;
55312;SDS011;46892;45.668;11.756;2024-01-30T01:05:23;108.20;;;57.03;;
55312;SDS011;46892;45.668;11.756;2024-01-30T01:07:49;102.73;;;58.50;;
55312;SDS011;46892;45.668;11.756;2024-01-30T01:10:16;104.63;;;57.80;;
55312;SDS011;46892;45.668;11.756;2024-01-30T01:12:42;98.20;;;54.93;;
55312;SDS011;46892;45.668;11.756;2024-01-30T01:15:08;96.17;;;56.67;;
55312;SDS011;46892;45.668;11.756;2024-01-30T01:17:37;99.63;;;55.67;;
55312;SDS011;46892;45.668;11.756;2024-01-30T01:20:03;99.07;;;56.00;;
55312;SDS011;46892;45.668;11.756;2024-01-30T01:22:31;91.90;;;54.80;;
55312;SDS011;46892;45.668;11.756;2024-01-30T01:24:57;96.57;;;53.13;;
55312;SDS011;46892;45.668;11.756;2024-01-30T01:27:24;101.70;;;55.07;;
55312;SDS011;46892;45.668;11.756;2024-01-30T01:29:50;99.03;;;55.97;;
55312;SDS011;46892;45.668;11.756;2024-01-30T01:32:16;93.07;;;54.40;;
55312;SDS011;46892;45.668;11.756;2024-01-30T01:34:41;95.53;;;53.47;;
55312;SDS011;46892;45.668;11.756;2024-01-30T01:37:07;99.10;;;55.33;;
55312;SDS011;46892;45.668;11.756;2024-01-30T01:39:33;92.93;;;51.80;;
55312;SDS011;46892;45.668;11.756;2024-01-30T01:41:59;106.70;;;61.13;;
55312;SDS011;46892;45.668;11.756;2024-01-30T01:44:25;92.23;;;53.83;;
55312;SDS011;46892;45.668;11.756;2024-01-30T01:46:51;95.00;;;55.43;;
55312;SDS011;46892;45.668;11.756;2024-01-30T01:49:17;107.20;;;58.10;;
55312;SDS011;46892;45.668;11.756;2024-01-30T01:51:44;95.97;;;54.03;;
55312;SDS011;46892;45.668;11.756;2024-01-30T01:54:12;99.07;;;56.30;;
55312;SDS011;46892;45.668;11.756;2024-01-30T01:56:40;95.70;;;53.53;;
55312;SDS011;46892;45.668;11.756;2024-01-30T01:59:08;88.33;;;51.27;;
55312;SDS011;46892;45.668;11.756;2024-01-30T02:01:37;91.20;;;51.37;;
55312;SDS011;46892;45.668;11.756;2024-01-30T02:04:03;99.20;;;54.83;;
55312;SDS011;46892;45.668;11.756;2024-01-30T02:06:30;90.30;;;48.80;;
55312;SDS011;46892;45.668;11.756;2024-01-30T02:08:57;93.37;;;47.00;;
55312;SDS011;46892;45.668;11.756;2024-01-30T02:11:22;75.23;;;44.70;;
55312;SDS011;46892;45.668;11.756;2024-01-30T02:13:49;77.10;;;45.40;;
55312;SDS011;46892;45.668;11.756;2024-01-30T02:16:15;78.13;;;46.77;;
55312;SDS011;46892;45.668;11.756;2024-01-30T02:18:42;85.27;;;47.97;;
55312;SDS011;46892;45.668;11.756;2024-01-30T02:21:12;80.90;;;47.20;;
55312;SDS011;46892;45.668;11.756;2024-01-30T02:23:41;88.77;;;49.20;;
55312;SDS011;46892;45.668;11.756;2024-01-30T02:26:09;83.10;;;46.17;;
55312;SDS011;46892;45.668;11.756;2024-01-30T02:28:36;95.37;;;53.33;;
55312;SDS011;46892;45.668;11.756;2024-01-30T02:31:01;87.60;;;49.27;;
55312;SDS011;46892;45.668;11.756;2024-01-30T02:33:27;94.67;;;53.73;;
55312;SDS011;46892;45.668;11.756;2024-01-30T02:35:53;84.57;;;49.47;;
55312;SDS011;46892;45.668;11.756;2024-01-30T02:38:20;89.27;;;50.23;;
55312;SDS011;46892;45.668;11.756;2024-01-30T02:40:45;88.80;;;49.40;;
55312;SDS011;46892;45.668;11.756;2024-01-30T02:43:11;90.83;;;50.30;;
55312;SDS011;46892;45.668;11.756;2024-01-30T02:45:37;93.40;;;51.87;;
55312;SDS011;46892;45.668;11.756;2024-01-30T02:48:03;90.97;;;52.23;;
55312;SDS011;46892;45.668;11.756;2024-01-30T02:50:29;94.07;;;52.33;;
55312;SDS011;46892;45.668;11.756;2024-01-30T02:52:54;89.97;;;51.37;;
55312;SDS011;46892;45.668;11.756;2024-01-30T02:55:20;91.80;;;50.63;;
55312;SDS011;46892;45.668;11.756;2024-01-30T02:57:46;92.43;;;51.17;;
55312;SDS011;46892;45.668;11.756;2024-01-30T03:00:12;89.20;;;49.13;;
55312;SDS011;46892;45.668;11.756;2024-01-30T03:02:38;84.90;;;48.90;;
55312;SDS011;46892;45.668;11.756;2024-01-30T03:05:05;81.77;;;47.83;;
55312;SDS011;46892;45.668;11.756;2024-01-30T03:07:31;86.70;;;48.43;;
55312;SDS011;46892;45.668;11.756;2024-01-30T03:09:57;92.20;;;51.00;;
55312;SDS011;46892;45.668;11.756;2024-01-30T03:12:22;96.10;;;54.57;;
55312;SDS011;46892;45.668;11.756;2024-01-30T03:14:48;80.57;;;47.20;;
55312;SDS011;46892;45.668;11.756;2024-01-30T03:17:16;88.73;;;49.93;;
55312;SDS011;46892;45.668;11.756;2024-01-30T03:19:42;81.83;;;48.07;;
55312;SDS011;46892;45.668;11.756;2024-01-30T03:22:08;85.33;;;47.10;;
55312;SDS011;46892;45.668;11.756;2024-01-30T03:24:34;79.57;;;47.00;;
55312;SDS011;46892;45.668;11.756;2024-01-30T03:26:59;80.87;;;45.77;;
55312;SDS011;46892;45.668;11.756;2024-01-30T03:29:25;77.90;;;44.30;;
55312;SDS011;46892;45.668;11.756;2024-01-30T03:31:51;73.70;;;44.60;;
55312;SDS011;46892;45.668;11.756;2024-01-30T03:34:17;77.57;;;45.17;;
55312;SDS011;46892;45.668;11.756;2024-01-30T03:36:42;78.50;;;44.50;;
55312;SDS011;46892;45.668;11.756;2024-01-30T03:39:08;74.10;;;43.03;;
55312;SDS011;46892;45.668;11.756;2024-01-30T03:41:34;71.20;;;42.27;;
55312;SDS011;46892;45.668;11.756;2024-01-30T03:44:00;78.00;;;44.83;;
55312;SDS011;46892;45.668;11.756;2024-01-30T03:46:25;74.80;;;44.60;;
55312;SDS011;46892;45.668;11.756;2024-01-30T03:48:51;76.03;;;43.37;;
55312;SDS011;46892;45.668;11.756;2024-01-30T03:51:17;70.13;;;41.17;;
55312;SDS011;46892;45.668;11.756;2024-01-30T03:53:43;72.70;;;41.17;;
55312;SDS011;46892;45.668;11.756;2024-01-30T03:56:09;70.90;;;41.23;;
55312;SDS011;46892;45.668;11.756;2024-01-30T03:58:35;68.27;;;38.83;;
55312;SDS011;46892;45.668;11.756;2024-01-30T04:01:00;66.07;;;37.47;;
55312;SDS011;46892;45.668;11.756;2024-01-30T04:03:26;66.50;;;38.80;;
55312;SDS011;46892;45.668;11.756;2024-01-30T04:05:52;69.70;;;39.33;;
55312;SDS011;46892;45.668;11.756;2024-01-30T04:08:18;71.87;;;40.00;;
55312;SDS011;46892;45.668;11.756;2024-01-30T04:10:44;63.63;;;37.80;;
55312;SDS011;46892;45.668;11.756;2024-01-30T04:13:11;65.20;;;39.00;;
55312;SDS011;46892;45.668;11.756;2024-01-30T04:15:36;65.80;;;37.43;;
55312;SDS011;46892;45.668;11.756;2024-01-30T04:18:02;60.67;;;36.50;;
55312;SDS011;46892;45.668;11.756;2024-01-30T04:20:29;70.23;;;38.73;;
55312;SDS011;46892;45.668;11.756;2024-01-30T04:22:54;67.00;;;37.73;;
55312;SDS011;46892;45.668;11.756;2024-01-30T04:25:20;60.07;;;35.17;;
55312;SDS011;46892;45.668;11.756;2024-01-30T04:27:46;59.93;;;35.67;;
55312;SDS011;46892;45.668;11.756;2024-01-30T04:30:12;61.97;;;36.87;;
55312;SDS011;46892;45.668;11.756;2024-01-30T04:32:38;62.10;;;35.57;;
55312;SDS011;46892;45.668;11.756;2024-01-30T04:35:03;59.53;;;34.90;;
55312;SDS011;46892;45.668;11.756;2024-01-30T04:37:30;55.03;;;35.07;;
55312;SDS011;46892;45.668;11.756;2024-01-30T04:39:56;55.50;;;34.23;;
55312;SDS011;46892;45.668;11.756;2024-01-30T04:42:22;57.77;;;35.13;;
55312;SDS011;46892;45.668;11.756;2024-01-30T04:44:48;56.90;;;35.63;;
55312;SDS011;46892;45.668;11.756;2024-01-30T04:47:14;52.20;;;32.67;;
55312;SDS011;46892;45.668;11.756;2024-01-30T04:49:40;59.83;;;34.00;;
55312;SDS011;46892;45.668;11.756;2024-01-30T04:52:07;53.20;;;33.33;;
55312;SDS011;46892;45.668;11.756;2024-01-30T04:54:34;53.27;;;32.17;;
55312;SDS011;46892;45.668;11.756;2024-01-30T04:57:00;51.93;;;31.83;;
55312;SDS011;46892;45.668;11.756;2024-01-30T04:59:26;55.07;;;32.67;;
55312;SDS011;46892;45.668;11.756;2024-01-30T05:01:52;48.60;;;31.03;;
55312;SDS011;46892;45.668;11.756;2024-01-30T05:04:18;46.47;;;28.77;;
55312;SDS011;46892;45.668;11.756;2024-01-30T05:06:44;50.63;;;30.53;;
55312;SDS011;46892;45.668;11.756;2024-01-30T05:09:10;50.93;;;31.53;;
55312;SDS011;46892;45.668;11.756;2024-01-30T05:11:37;48.83;;;31.00;;
55312;SDS011;46892;45.668;11.756;2024-01-30T05:14:03;50.43;;;30.50;;
55312;SDS011;46892;45.668;11.756;2024-01-30T05:16:30;52.13;;;31.27;;
55312;SDS011;46892;45.668;11.756;2024-01-30T05:18:56;50.73;;;29.80;;
55312;SDS011;46892;45.668;11.756;2024-01-30T05:21:22;48.77;;;30.57;;
55312;SDS011;46892;45.668;11.756;2024-01-30T05:23:48;53.17;;;30.90;;
55312;SDS011;46892;45.668;11.756;2024-01-30T05:26:14;47.00;;;29.93;;
55312;SDS011;46892;45.668;11.756;2024-01-30T05:28:39;44.67;;;28.57;;
55312;SDS011;46892;45.668;11.756;2024-01-30T05:31:05;45.77;;;29.00;;
55312;SDS011;46892;45.668;11.756;2024-01-30T05:33:31;47.10;;;28.83;;
55312;SDS011;46892;45.668;11.756;2024-01-30T05:35:57;48.53;;;26.90;;
55312;SDS011;46892;45.668;11.756;2024-01-30T05:38:22;45.40;;;28.23;;
55312;SDS011;46892;45.668;11.756;2024-01-30T05:40:48;41.00;;;26.27;;
55312;SDS011;46892;45.668;11.756;2024-01-30T05:43:14;50.53;;;28.83;;
55312;SDS011;46892;45.668;11.756;2024-01-30T05:45:40;40.93;;;26.03;;
55312;SDS011;46892;45.668;11.756;2024-01-30T05:48:06;43.63;;;27.00;;
55312;SDS011;46892;45.668;11.756;2024-01-30T05:50:32;41.57;;;25.33;;
55312;SDS011;46892;45.668;11.756;2024-01-30T05:52:57;38.83;;;25.33;;
55312;SDS011;46892;45.668;11.756;2024-01-30T05:55:23;40.33;;;25.40;;
55312;SDS011;46892;45.668;11.756;2024-01-30T05:57:49;44.17;;;27.57;;
55312;SDS011;46892;45.668;11.756;2024-01-30T06:00:16;40.33;;;26.20;;
55312;SDS011;46892;45.668;11.756;2024-01-30T06:02:42;42.17;;;24.60;;
55312;SDS011;46892;45.668;11.756;2024-01-30T06:05:08;38.37;;;24.67;;
55312;SDS011;46892;45.668;11.756;2024-01-30T06:07:33;37.73;;;24.20;;
55312;SDS011;46892;45.668;11.756;2024-01-30T06:09:59;39.87;;;24.73;;
55312;SDS011;46892;45.668;11.756;2024-01-30T06:12:27;41.40;;;25.73;;
55312;SDS011;46892;45.668;11.756;2024-01-30T06:14:53;41.87;;;25.00;;
55312;SDS011;46892;45.668;11.756;2024-01-30T06:17:22;41.67;;;24.93;;
55312;SDS011;46892;45.668;11.756;2024-01-30T06:19:48;39.97;;;25.50;;
55312;SDS011;46892;45.668;11.756;2024-01-30T06:22:14;42.87;;;25.87;;
55312;SDS011;46892;45.668;11.756;2024-01-30T06:24:40;45.27;;;26.30;;
55312;SDS011;46892;45.668;11.756;2024-01-30T06:27:06;42.47;;;26.57;;
55312;SDS011;46892;45.668;11.756;2024-01-30T06:29:32;42.80;;;25.90;;
55312;SDS011;46892;45.668;11.756;2024-01-30T06:31:58;44.80;;;27.57;;
55312;SDS011;46892;45.668;11.756;2024-01-30T06:34:24;44.53;;;26.80;;
55312;SDS011;46892;45.668;11.756;2024-01-30T06:36:51;41.07;;;26.10;;
55312;SDS011;46892;45.668;11.756;2024-01-30T06:39:17;42.93;;;27.40;;
55312;SDS011;46892;45.668;11.756;2024-01-30T06:41:43;44.10;;;26.50;;
55312;SDS011;46892;45.668;11.756;2024-01-30T06:44:08;45.83;;;28.57;;
55312;SDS011;46892;45.668;11.756;2024-01-30T06:46:35;50.17;;;29.30;;
55312;SDS011;46892;45.668;11.756;2024-01-30T06:49:00;46.70;;;28.90;;
55312;SDS011;46892;45.668;11.756;2024-01-30T06:51:26;49.33;;;28.77;;
55312;SDS011;46892;45.668;11.756;2024-01-30T06:53:52;47.57;;;29.40;;
55312;SDS011;46892;45.668;11.756;2024-01-30T06:56:18;46.10;;;29.10;;
55312;SDS011;46892;45.668;11.756;2024-01-30T06:58:47;49.30;;;28.80;;
55312;SDS011;46892;45.668;11.756;2024-01-30T07:01:15;49.80;;;29.90;;
55312;SDS011;46892;45.668;11.756;2024-01-30T07:03:42;47.83;;;29.90;;
55312;SDS011;46892;45.668;11.756;2024-01-30T07:06:08;51.60;;;31.27;;
55312;SDS011;46892;45.668;11.756;2024-01-30T07:08:36;51.83;;;31.23;;
55312;SDS011;46892;45.668;11.756;2024-01-30T07:11:04;49.77;;;29.20;;
55312;SDS011;46892;45.668;11.756;2024-01-30T07:13:31;52.27;;;28.77;;
55312;SDS011;46892;45.668;11.756;2024-01-30T07:15:57;49.27;;;28.20;;
55312;SDS011;46892;45.668;11.756;2024-01-30T07:18:22;48.13;;;28.10;;
55312;SDS011;46892;45.668;11.756;2024-01-30T07:20:48;45.30;;;28.70;;
55312;SDS011;46892;45.668;11.756;2024-01-30T07:23:15;51.50;;;30.50;;
55312;SDS011;46892;45.668;11.756;2024-01-30T07:25:43;44.90;;;27.63;;
55312;SDS011;46892;45.668;11.756;2024-01-30T07:28:10;48.13;;;28.10;;
55312;SDS011;46892;45.668;11.756;2024-01-30T07:30:37;46.20;;;28.97;;
55312;SDS011;46892;45.668;11.756;2024-01-30T07:33:03;46.63;;;28.53;;
55312;SDS011;46892;45.668;11.756;2024-01-30T07:35:29;56.70;;;30.47;;
55312;SDS011;46892;45.668;11.756;2024-01-30T07:37:55;47.27;;;30.43;;
55312;SDS011;46892;45.668;11.756;2024-01-30T07:40:22;53.43;;;34.63;;
55312;SDS011;46892;45.668;11.756;2024-01-30T07:42:48;57.83;;;35.73;;
55312;SDS011;46892;45.668;11.756;2024-01-30T07:45:14;65.77;;;38.57;;
55312;SDS011;46892;45.668;11.756;2024-01-30T07:47:40;67.87;;;41.57;;
55312;SDS011;46892;45.668;11.756;2024-01-30T07:50:07;64.20;;;40.00;;
55312;SDS011;46892;45.668;11.756;2024-01-30T07:52:33;60.10;;;38.00;;
55312;SDS011;46892;45.668;11.756;2024-01-30T07:54:59;69.00;;;41.60;;
55312;SDS011;46892;45.668;11.756;2024-01-30T07:57:24;64.67;;;40.00;;
55312;SDS011;46892;45.668;11.756;2024-01-30T07:59:50;69.03;;;41.70;;
55312;SDS011;46892;45.668;11.756;2024-01-30T08:02:16;64.17;;;39.60;;
55312;SDS011;46892;45.668;11.756;2024-01-30T08:04:41;62.90;;;39.33;;
55312;SDS011;46892;45.668;11.756;2024-01-30T08:07:07;62.03;;;36.47;;
55312;SDS011;46892;45.668;11.756;2024-01-30T08:09:33;51.77;;;33.83;;
55312;SDS011;46892;45.668;11.756;2024-01-30T08:11:59;54.63;;;34.37;;
55312;SDS011;46892;45.668;11.756;2024-01-30T08:14:25;51.60;;;31.37;;
55312;SDS011;46892;45.668;11.756;2024-01-30T08:16:51;48.13;;;30.70;;
55312;SDS011;46892;45.668;11.756;2024-01-30T08:19:17;46.37;;;31.30;;
55312;SDS011;46892;45.668;11.756;2024-01-30T08:21:43;50.30;;;33.43;;
55312;SDS011;46892;45.668;11.756;2024-01-30T08:24:08;51.10;;;32.67;;
55312;SDS011;46892;45.668;11.756;2024-01-30T08:26:34;49.20;;;31.30;;
55312;SDS011;46892;45.668;11.756;2024-01-30T08:29:00;52.80;;;33.33;;
55312;SDS011;46892;45.668;11.756;2024-01-30T08:31:26;47.97;;;34.23;;
55312;SDS011;46892;45.668;11.756;2024-01-30T08:33:52;53.37;;;35.90;;
55312;SDS011;46892;45.668;11.756;2024-01-30T08:36:18;49.20;;;33.17;;
55312;SDS011;46892;45.668;11.756;2024-01-30T08:38:45;45.70;;;31.60;;
55312;SDS011;46892;45.668;11.756;2024-01-30T08:41:11;49.10;;;34.37;;
55312;SDS011;46892;45.668;11.756;2024-01-30T08:43:36;50.77;;;34.87;;
55312;SDS011;46892;45.668;11.756;2024-01-30T08:46:02;57.27;;;36.90;;
55312;SDS011;46892;45.668;11.756;2024-01-30T08:48:29;49.17;;;33.80;;
55312;SDS011;46892;45.668;11.756;2024-01-30T08:50:55;54.63;;;35.37;;
55312;SDS011;46892;45.668;11.756;2024-01-30T08:53:21;48.57;;;31.13;;
55312;SDS011;46892;45.668;11.756;2024-01-30T08:55:47;41.30;;;30.37;;
55312;SDS011;46892;45.668;11.756;2024-01-30T08:58:14;48.63;;;30.10;;
55312;SDS011;46892;45.668;11.756;2024-01-30T09:00:40;43.47;;;29.63;;
55312;SDS011;46892;45.668;11.756;2024-01-30T09:03:06;44.97;;;29.60;;
55312;SDS011;46892;45.668;11.756;2024-01-30T09:05:32;47.93;;;31.37;;
55312;SDS011;46892;45.668;11.756;2024-01-30T09:07:59;50.87;;;37.27;;
55312;SDS011;46892;45.668;11.756;2024-01-30T09:10:25;54.10;;;35.87;;
55312;SDS011;46892;45.668;11.756;2024-01-30T09:12:51;51.10;;;34.23;;
55312;SDS011;46892;45.668;11.756;2024-01-30T09:15:17;58.57;;;40.63;;
55312;SDS011;46892;45.668;11.756;2024-01-30T09:17:44;53.67;;;37.10;;
55312;SDS011;46892;45.668;11.756;2024-01-30T09:20:10;45.57;;;32.23;;
55312;SDS011;46892;45.668;11.756;2024-01-30T09:22:38;48.73;;;34.67;;
55312;SDS011;46892;45.668;11.756;2024-01-30T09:25:07;40.70;;;29.40;;
55312;SDS011;46892;45.668;11.756;2024-01-30T09:27:34;43.93;;;30.17;;
55312;SDS011;46892;45.668;11.756;2024-01-30T09:30:00;38.97;;;28.13;;
55312;SDS011;46892;45.668;11.756;2024-01-30T09:32:25;36.83;;;26.57;;
55312;SDS011;46892;45.668;11.756;2024-01-30T09:34:51;35.70;;;25.03;;
55312;SDS011;46892;45.668;11.756;2024-01-30T09:37:17;35.40;;;24.23;;
55312;SDS011;46892;45.668;11.756;2024-01-30T09:39:43;36.37;;;25.07;;
55312;SDS011;46892;45.668;11.756;2024-01-30T09:44:34;32.20;;;23.60;;
55312;SDS011;46892;45.668;11.756;2024-01-30T09:47:02;35.10;;;24.50;;
55312;SDS011;46892;45.668;11.756;2024-01-30T09:49:34;38.20;;;24.10;;
55312;SDS011;46892;45.668;11.756;2024-01-30T09:52:01;30.40;;;21.23;;
55312;SDS011;46892;45.668;11.756;2024-01-30T09:54:31;34.73;;;24.00;;
55312;SDS011;46892;45.668;11.756;2024-01-30T09:56:57;33.70;;;24.37;;
55312;SDS011;46892;45.668;11.756;2024-01-30T09:59:23;33.53;;;25.43;;
55312;SDS011;46892;45.668;11.756;2024-01-30T10:01:50;36.97;;;26.27;;
55312;SDS011;46892;45.668;11.756;2024-01-30T10:04:16;35.00;;;23.60;;
55312;SDS011;46892;45.668;11.756;2024-01-30T10:06:42;35.67;;;24.63;;
55312;SDS011;46892;45.668;11.756;2024-01-30T10:09:08;32.00;;;22.10;;
55312;SDS011;46892;45.668;11.756;2024-01-30T10:11:38;30.20;;;20.85;;
55312;SDS011;46892;45.668;11.756;2024-01-30T10:14:04;30.97;;;21.10;;
55312;SDS011;46892;45.668;11.756;2024-01-30T10:16:29;34.47;;;23.30;;
55312;SDS011;46892;45.668;11.756;2024-01-30T10:18:55;27.50;;;20.70;;
55312;SDS011;46892;45.668;11.756;2024-01-30T10:21:21;30.57;;;20.70;;
55312;SDS011;46892;45.668;11.756;2024-01-30T10:23:47;30.07;;;20.70;;
55312;SDS011;46892;45.668;11.756;2024-01-30T10:26:13;28.93;;;20.90;;
55312;SDS011;46892;45.668;11.756;2024-01-30T10:28:41;28.17;;;20.77;;
55312;SDS011;46892;45.668;11.756;2024-01-30T10:31:07;25.60;;;19.57;;
55312;SDS011;46892;45.668;11.756;2024-01-30T10:33:33;29.60;;;20.20;;
55312;SDS011;46892;45.668;11.756;2024-01-30T10:36:02;25.90;;;18.60;;
55312;SDS011;46892;45.668;11.756;2024-01-30T10:38:30;24.63;;;18.00;;
55312;SDS011;46892;45.668;11.756;2024-01-30T10:40:57;24.13;;;17.23;;
55312;SDS011;46892;45.668;11.756;2024-01-30T10:43:24;26.57;;;17.53;;
55312;SDS011;46892;45.668;11.756;2024-01-30T10:45:57;25.63;;;18.30;;
55312;SDS011;46892;45.668;11.756;2024-01-30T10:48:59;28.20;;;18.00;;
55312;SDS011;46892;45.668;11.756;2024-01-30T10:51:28;26.67;;;17.00;;
55312;SDS011;46892;45.668;11.756;2024-01-30T10:53:55;36.67;;;22.43;;
55312;SDS011;46892;45.668;11.756;2024-01-30T10:56:21;31.17;;;20.90;;
55312;SDS011;46892;45.668;11.756;2024-01-30T10:58:53;26.73;;;19.37;;
55312;SDS011;46892;45.668;11.756;2024-01-30T11:01:21;25.07;;;17.40;;
55312;SDS011;46892;45.668;11.756;2024-01-30T11:03:54;22.87;;;16.33;;
55312;SDS011;46892;45.668;11.756;2024-01-30T11:06:24;24.33;;;15.27;;
55312;SDS011;46892;45.668;11.756;2024-01-30T11:09:03;24.47;;;14.37;;
55312;SDS011;46892;45.668;11.756;2024-01-30T11:14:37;22.63;;;14.60;;
55312;SDS011;46892;45.668;11.756;2024-01-30T11:17:05;25.50;;;16.27;;
55312;SDS011;46892;45.668;11.756;2024-01-30T11:19:31;21.13;;;12.80;;
55312;SDS011;46892;45.668;11.756;2024-01-30T11:21:58;22.17;;;14.47;;
55312;SDS011;46892;45.668;11.756;2024-01-30T11:24:25;20.50;;;13.20;;
55312;SDS011;46892;45.668;11.756;2024-01-30T11:27:01;21.33;;;14.03;;
55312;SDS011;46892;45.668;11.756;2024-01-30T11:29:34;22.10;;;13.70;;
55312;SDS011;46892;45.668;11.756;2024-01-30T11:32:00;21.97;;;14.33;;
55312;SDS011;46892;45.668;11.756;2024-01-30T11:34:26;21.23;;;13.83;;
55312;SDS011;46892;45.668;11.756;2024-01-30T11:36:52;20.27;;;14.00;;
55312;SDS011;46892;45.668;11.756;2024-01-30T11:39:25;25.60;;;15.83;;
55312;SDS011;46892;45.668;11.756;2024-01-30T11:41:51;23.07;;;14.40;;
55312;SDS011;46892;45.668;11.756;2024-01-30T11:44:21;24.83;;;15.47;;
55312;SDS011;46892;45.668;11.756;2024-01-30T11:46:48;26.10;;;16.63;;
55312;SDS011;46892;45.668;11.756;2024-01-30T11:49:14;25.93;;;17.63;;
55312;SDS011;46892;45.668;11.756;2024-01-30T11:51:41;28.20;;;17.87;;
55312;SDS011;46892;45.668;11.756;2024-01-30T11:54:07;29.30;;;19.20;;
55312;SDS011;46892;45.668;11.756;2024-01-30T11:56:33;28.37;;;19.20;;
55312;SDS011;46892;45.668;11.756;2024-01-30T11:58:59;30.87;;;18.67;;
55312;SDS011;46892;45.668;11.756;2024-01-30T12:01:26;30.10;;;17.60;;
55312;SDS011;46892;45.668;11.756;2024-01-30T12:03:52;27.40;;;17.93;;
55312;SDS011;46892;45.668;11.756;2024-01-30T12:06:19;25.57;;;17.00;;
55312;SDS011;46892;45.668;11.756;2024-01-30T12:09:00;27.27;;;17.93;;
55312;SDS011;46892;45.668;11.756;2024-01-30T12:11:42;26.77;;;17.60;;
55312;SDS011;46892;45.668;11.756;2024-01-30T12:14:09;28.70;;;18.27;;
55312;SDS011;46892;45.668;11.756;2024-01-30T12:16:36;29.43;;;18.47;;
55312;SDS011;46892;45.668;11.756;2024-01-30T12:19:02;27.37;;;17.43;;
55312;SDS011;46892;45.668;11.756;2024-01-30T12:21:29;26.13;;;17.73;;
55312;SDS011;46892;45.668;11.756;2024-01-30T12:23:58;27.30;;;18.70;;
55312;SDS011;46892;45.668;11.756;2024-01-30T12:26:25;30.57;;;17.67;;
55312;SDS011;46892;45.668;11.756;2024-01-30T12:28:54;27.37;;;18.47;;
55312;SDS011;46892;45.668;11.756;2024-01-30T12:31:31;25.87;;;18.13;;
55312;SDS011;46892;45.668;11.756;2024-01-30T12:33:59;27.90;;;18.93;;
55312;SDS011;46892;45.668;11.756;2024-01-30T12:36:25;28.63;;;19.40;;
55312;SDS011;46892;45.668;11.756;2024-01-30T12:58:01;25.50;;;17.70;;
55312;SDS011;46892;45.668;11.756;2024-01-30T13:00:27;28.37;;;18.97;;
55312;SDS011;46892;45.668;11.756;2024-01-30T13:02:52;25.23;;;17.77;;
55312;SDS011;46892;45.668;11.756;2024-01-30T13:05:18;28.67;;;18.70;;
55312;SDS011;46892;45.668;11.756;2024-01-30T13:07:44;27.77;;;18.27;;
55312;SDS011;46892;45.668;11.756;2024-01-30T13:10:10;28.20;;;18.37;;
55312;SDS011;46892;45.668;11.756;2024-01-30T13:12:36;26.07;;;18.27;;
55312;SDS011;46892;45.668;11.756;2024-01-30T13:15:03;30.17;;;20.13;;
55312;SDS011;46892;45.668;11.756;2024-01-30T13:17:30;28.87;;;18.97;;
55312;SDS011;46892;45.668;11.756;2024-01-30T13:19:56;29.07;;;19.23;;
55312;SDS011;46892;45.668;11.756;2024-01-30T13:22:23;27.43;;;17.77;;
55312;SDS011;46892;45.668;11.756;2024-01-30T13:24:49;26.30;;;17.93;;
55312;SDS011;46892;45.668;11.756;2024-01-30T13:27:15;28.13;;;18.60;;
55312;SDS011;46892;45.668;11.756;2024-01-30T13:29:41;26.40;;;17.83;;
55312;SDS011;46892;45.668;11.756;2024-01-30T13:32:07;31.60;;;19.47;;
55312;SDS011;46892;45.668;11.756;2024-01-30T13:34:33;27.77;;;18.10;;
55312;SDS011;46892;45.668;11.756;2024-01-30T13:36:58;28.50;;;17.00;;
55312;SDS011;46892;45.668;11.756;2024-01-30T13:39:24;28.53;;;18.30;;
55312;SDS011;46892;45.668;11.756;2024-01-30T13:41:50;24.73;;;15.63;;
55312;SDS011;46892;45.668;11.756;2024-01-30T13:44:16;25.63;;;17.67;;
55312;SDS011;46892;45.668;11.756;2024-01-30T13:46:42;28.37;;;17.87;;
55312;SDS011;46892;45.668;11.756;2024-01-30T13:49:09;29.63;;;17.40;;
55312;SDS011;46892;45.668;11.756;2024-01-30T13:51:34;29.23;;;18.00;;
55312;SDS011;46892;45.668;11.756;2024-01-30T13:54:00;27.57;;;17.37;;
55312;SDS011;46892;45.668;11.756;2024-01-30T13:56:26;28.27;;;19.40;;
55312;SDS011;46892;45.668;11.756;2024-01-30T13:58:52;26.27;;;18.60;;
55312;SDS011;46892;45.668;11.756;2024-01-30T14:01:20;31.13;;;19.93;;
55312;SDS011;46892;45.668;11.756;2024-01-30T14:03:46;29.00;;;19.60;;
55312;SDS011;46892;45.668;11.756;2024-01-30T14:06:12;28.13;;;19.03;;
55312;SDS011;46892;45.668;11.756;2024-01-30T14:08:38;28.17;;;19.63;;
55312;SDS011;46892;45.668;11.756;2024-01-30T14:11:04;26.67;;;19.60;;
55312;SDS011;46892;45.668;11.756;2024-01-30T14:13:29;30.43;;;19.67;;
55312;SDS011;46892;45.668;11.756;2024-01-30T14:15:57;31.47;;;18.47;;
55312;SDS011;46892;45.668;11.756;2024-01-30T14:18:23;29.50;;;19.83;;
55312;SDS011;46892;45.668;11.756;2024-01-30T14:20:50;28.30;;;18.30;;
55312;SDS011;46892;45.668;11.756;2024-01-30T14:23:17;28.20;;;19.13;;
55312;SDS011;46892;45.668;11.756;2024-01-30T14:25:43;28.50;;;19.10;;
55312;SDS011;46892;45.668;11.756;2024-01-30T14:28:09;32.33;;;19.53;;
55312;SDS011;46892;45.668;11.756;2024-01-30T14:30:35;29.33;;;19.90;;